sim
Sign-in with your pilot id or email,
or register
Callsign
Passwort

Schedule Details

Flight Number: OEO1679
Departure: Keflavik International Airport (BIKF) at 10:00
Arrival: Munich Airport (EDDM) at 13:50

Weather Information
Getting current METAR information for BIKF 231330Z 02018KT 9999 FEW025 SCT180 05/M02 Q1000
Getting current METAR information for EDDM 231350Z 20004KT 9999 FEW015 FEW020TCU SCT043 18/16 Q1009 NOSIG

Schedule Frequency

Route Map